Time;durP1;ratioP1;P1;durP2;ratioP2;P2;SDS_P1;SDS_P2;PMS_P1;PMS_P2;Temp;Humidity;BMP_temperature;BMP_pressure;BME280_temperature;BME280_humidity;BME280_pressure;Samples;Min_cycle;Max_cycle;Signal;HPM_P1;HPM_P2
2023/10/27 00:00:45;;;;;;;1999.90;999.90;;;10.30;99.90;;;;;;5048821;28;20065;-70
2023/10/27 00:03:11;;;;;;;1999.90;999.90;;;10.30;99.90;;;;;;5047921;28;20017;-70
2023/10/27 00:05:37;;;;;;;1999.90;999.90;;;10.30;99.90;;;;;;5053171;28;20020;-70
2023/10/27 00:08:02;;;;;;;1999.90;999.90;;;10.30;99.90;;;;;;5053474;28;20316;-70
2023/10/27 00:10:28;;;;;;;1999.90;999.90;;;10.30;99.90;;;;;;5051803;28;20024;-70
2023/10/27 00:12:54;;;;;;;1999.90;999.90;;;10.30;99.90;;;;;;5052359;28;20025;-70
2023/10/27 00:15:20;;;;;;;1999.90;999.90;;;10.30;99.90;;;;;;5046916;28;20033;-70
2023/10/27 00:17:46;;;;;;;1999.90;999.90;;;10.30;99.90;;;;;;5052509;28;20708;-70
2023/10/27 00:20:13;;;;;;;1999.90;999.90;;;10.30;99.90;;;;;;5054159;28;20269;-70
2023/10/27 00:22:38;;;;;;;;;;;10.30;99.90;;;;;;5052385;28;20428;-71
2023/10/27 00:25:05;;;;;;;1999.90;999.90;;;10.30;99.90;;;;;;5052312;28;20038;-70
2023/10/27 00:27:30;;;;;;;1999.90;999.90;;;10.30;99.90;;;;;;5051828;28;20055;-69
2023/10/27 00:29:56;;;;;;;1999.90;999.90;;;10.30;99.90;;;;;;5053444;28;20412;-70
2023/10/27 00:32:22;;;;;;;1999.90;999.90;;;10.20;99.90;;;;;;5052865;28;20442;-70
2023/10/27 00:34:47;;;;;;;1999.90;999.90;;;10.20;99.90;;;;;;5050686;28;20098;-69
2023/10/27 00:37:13;;;;;;;1999.90;999.90;;;10.20;99.90;;;;;;5047280;28;20029;-69
2023/10/27 00:39:39;;;;;;;1999.90;999.90;;;10.20;99.90;;;;;;5047034;28;20025;-69
2023/10/27 00:42:08;;;;;;;1999.90;999.90;;;10.20;99.90;;;;;;5049176;28;20025;-70
2023/10/27 00:44:35;;;;;;;1999.90;999.90;;;10.20;99.90;;;;;;5052825;28;20048;-70
2023/10/27 00:47:01;;;;;;;1999.90;999.90;;;10.20;99.90;;;;;;5052093;28;20029;-70
2023/10/27 00:49:28;;;;;;;1999.90;999.90;;;10.30;99.90;;;;;;5048837;28;20076;-70
2023/10/27 00:51:54;;;;;;;1999.90;999.90;;;10.20;99.90;;;;;;5045509;28;20036;-70
2023/10/27 00:54:21;;;;;;;1999.90;999.90;;;10.30;99.90;;;;;;5047946;28;20025;-70
2023/10/27 00:56:47;;;;;;;1999.90;999.90;;;10.20;99.90;;;;;;5048878;28;20032;-71
2023/10/27 00:59:14;;;;;;;1999.90;999.90;;;10.20;99.90;;;;;;5051977;28;20029;-70
2023/10/27 01:01:42;;;;;;;1999.90;999.90;;;10.20;99.90;;;;;;5042972;28;20040;-70
2023/10/27 01:04:07;;;;;;;1999.90;999.90;;;10.20;99.90;;;;;;5048907;28;20029;-70
2023/10/27 01:06:34;;;;;;;1999.90;999.90;;;10.20;99.90;;;;;;5056144;28;20431;-70
2023/10/27 01:08:59;;;;;;;1999.90;999.90;;;10.30;99.90;;;;;;5056393;28;20025;-71
2023/10/27 01:11:25;;;;;;;1999.90;999.90;;;10.20;99.90;;;;;;5054153;28;20048;-70
2023/10/27 01:13:54;;;;;;;1999.90;999.90;;;10.30;99.90;;;;;;5055525;28;20039;-76
2023/10/27 01:16:23;;;;;;;1999.90;999.90;;;10.30;99.90;;;;;;5050744;28;20025;-71
2023/10/27 01:18:48;;;;;;;1999.90;999.90;;;10.30;99.90;;;;;;5056531;28;20029;-71
2023/10/27 01:21:14;;;;;;;1999.90;999.90;;;10.30;99.90;;;;;;5054857;28;20048;-70
2023/10/27 01:23:40;;;;;;;1999.90;999.90;;;10.20;99.90;;;;;;5047236;28;20029;-71
2023/10/27 01:26:06;;;;;;;1999.90;999.90;;;10.30;99.90;;;;;;5049053;28;20032;-70
2023/10/27 01:28:31;;;;;;;1999.90;999.90;;;10.20;99.90;;;;;;5056412;28;20082;-70
2023/10/27 01:30:57;;;;;;;1999.90;999.90;;;10.20;99.90;;;;;;5050420;28;20426;-74
2023/10/27 01:33:24;;;;;;;1999.90;999.90;;;10.20;99.90;;;;;;5056204;28;20025;-71
2023/10/27 01:35:51;;;;;;;1999.90;999.90;;;10.20;99.90;;;;;;5056148;28;20113;-70
2023/10/27 01:38:17;;;;;;;1999.90;999.90;;;10.20;99.90;;;;;;5052911;28;21601;-70
2023/10/27 01:40:42;;;;;;;1999.90;999.90;;;10.20;99.90;;;;;;5055949;28;20480;-71
2023/10/27 01:43:08;;;;;;;1999.90;999.90;;;10.20;99.90;;;;;;5047721;28;20313;-71
2023/10/27 01:45:34;;;;;;;1999.90;999.90;;;10.20;99.90;;;;;;5055205;28;20028;-71
2023/10/27 01:48:00;;;;;;;1999.90;999.90;;;10.20;99.90;;;;;;5051851;28;20115;-70
2023/10/27 01:50:26;;;;;;;1999.90;999.90;;;10.20;99.90;;;;;;5049950;28;20056;-71
2023/10/27 01:52:52;;;;;;;1999.90;999.90;;;10.20;99.90;;;;;;5049499;28;20033;-71
2023/10/27 01:55:17;;;;;;;1999.90;999.90;;;10.20;99.90;;;;;;5055170;28;20043;-70
2023/10/27 01:57:44;;;;;;;1999.90;999.90;;;10.20;99.90;;;;;;5048814;28;20367;-77
2023/10/27 02:00:10;;;;;;;1999.90;999.90;;;10.20;99.90;;;;;;5051734;28;20033;-71
2023/10/27 02:02:36;;;;;;;1999.90;999.90;;;10.20;99.90;;;;;;5051200;28;20032;-71
2023/10/27 02:05:06;;;;;;;1999.90;999.90;;;10.30;99.90;;;;;;5054351;28;20431;-70
2023/10/27 02:07:31;;;;;;;1999.90;999.90;;;10.20;99.90;;;;;;5055071;28;20025;-70
2023/10/27 02:10:00;;;;;;;1999.90;999.90;;;10.20;99.90;;;;;;5054997;28;20024;-71
2023/10/27 02:12:26;;;;;;;1999.90;999.90;;;10.20;99.90;;;;;;5053496;28;20455;-70
2023/10/27 02:14:52;;;;;;;1999.90;999.90;;;10.30;99.90;;;;;;5056327;28;20033;-71
2023/10/27 02:17:18;;;;;;;1999.90;999.90;;;10.30;99.90;;;;;;5044262;28;20071;-70
2023/10/27 02:19:44;;;;;;;1999.90;999.90;;;10.20;99.90;;;;;;5056603;28;20029;-70
2023/10/27 02:22:09;;;;;;;1999.90;999.90;;;10.20;99.90;;;;;;5055051;28;20053;-70
2023/10/27 02:24:37;;;;;;;1999.90;999.90;;;10.30;99.90;;;;;;5055462;28;20060;-71
2023/10/27 02:27:03;;;;;;;1999.90;999.90;;;10.30;99.90;;;;;;5048127;28;20017;-70
2023/10/27 02:29:29;;;;;;;1999.90;999.90;;;10.30;99.90;;;;;;5053204;28;20100;-70
2023/10/27 02:31:55;;;;;;;1999.90;999.90;;;10.30;99.90;;;;;;5054148;28;20061;-77
2023/10/27 02:34:20;;;;;;;1999.90;999.90;;;10.30;99.90;;;;;;5054557;28;20331;-70
2023/10/27 02:36:46;;;;;;;1999.90;999.90;;;10.30;99.90;;;;;;5055783;28;20389;-70
2023/10/27 02:39:12;;;;;;;1999.90;999.90;;;10.30;99.90;;;;;;5055640;28;20028;-71
2023/10/27 02:41:38;;;;;;;1999.90;999.90;;;10.30;99.90;;;;;;5055941;28;20430;-71
2023/10/27 02:44:04;;;;;;;1999.90;999.90;;;10.30;99.90;;;;;;5054448;28;20025;-70
2023/10/27 02:46:30;;;;;;;1999.90;999.90;;;10.30;99.90;;;;;;5049962;28;20021;-70
2023/10/27 02:48:56;;;;;;;1999.90;999.90;;;10.30;99.90;;;;;;5048115;28;20033;-75
2023/10/27 02:51:22;;;;;;;1999.90;999.90;;;10.30;99.90;;;;;;5051684;28;20086;-71
2023/10/27 02:53:47;;;;;;;1999.90;999.90;;;10.30;99.90;;;;;;5051676;28;20059;-70
2023/10/27 02:56:13;;;;;;;1999.90;999.90;;;10.30;99.90;;;;;;5049114;28;20025;-70
2023/10/27 02:58:39;;;;;;;1999.90;999.90;;;10.40;99.90;;;;;;5048694;28;20413;-70
2023/10/27 03:01:14;;;;;;;1999.90;999.90;;;10.40;99.90;;;;;;5054266;28;20151;-70
2023/10/27 03:03:40;;;;;;;1999.90;999.90;;;10.40;99.90;;;;;;5048784;28;20040;-69
2023/10/27 03:06:05;;;;;;;1999.90;999.90;;;10.40;99.90;;;;;;5051725;28;20029;-79
2023/10/27 03:08:32;;;;;;;1999.90;999.90;;;10.40;99.90;;;;;;5052981;28;20407;-70
2023/10/27 03:10:58;;;;;;;1999.90;999.90;;;10.40;99.90;;;;;;5053741;28;20021;-69
2023/10/27 03:13:24;;;;;;;1999.90;999.90;;;10.40;99.90;;;;;;5049951;28;20040;-69
2023/10/27 03:15:49;;;;;;;1999.90;999.90;;;10.40;99.90;;;;;;5053238;28;20029;-70
2023/10/27 03:18:15;;;;;;;1999.90;999.90;;;10.40;99.90;;;;;;5050239;28;20494;-70
2023/10/27 03:20:41;;;;;;;1999.90;999.90;;;10.40;99.90;;;;;;5046626;28;20025;-70
2023/10/27 03:23:06;;;;;;;1999.90;999.90;;;10.40;99.90;;;;;;5050551;28;20359;-73
2023/10/27 03:25:32;;;;;;;1999.90;999.90;;;10.40;99.90;;;;;;5052931;28;20316;-70
2023/10/27 03:27:58;;;;;;;1999.90;999.90;;;10.40;99.90;;;;;;5052717;28;20103;-70
2023/10/27 03:30:24;;;;;;;1999.90;999.90;;;10.40;99.90;;;;;;5051139;28;20033;-70
2023/10/27 03:32:50;;;;;;;1999.90;999.90;;;10.40;99.90;;;;;;5047346;28;20017;-70
2023/10/27 03:35:16;;;;;;;1999.90;999.90;;;10.40;99.90;;;;;;5050748;28;20033;-75
2023/10/27 03:37:41;;;;;;;1999.90;999.90;;;10.40;99.90;;;;;;5051713;28;20420;-70
2023/10/27 03:40:08;;;;;;;1999.90;999.90;;;10.40;99.90;;;;;;5050988;28;20025;-70
2023/10/27 03:42:34;;;;;;;1999.90;999.90;;;10.50;99.90;;;;;;5043164;28;20079;-70
2023/10/27 03:44:59;;;;;;;1999.90;999.90;;;10.40;99.90;;;;;;5047087;28;20045;-70
2023/10/27 03:47:25;;;;;;;1999.90;999.90;;;10.50;99.90;;;;;;5054624;28;20048;-70
2023/10/27 03:49:51;;;;;;;1999.90;999.90;;;10.50;99.90;;;;;;5052485;28;20509;-78
2023/10/27 03:52:17;;;;;;;1999.90;999.90;;;10.50;99.90;;;;;;5045540;28;20028;-70
2023/10/27 03:54:43;;;;;;;1999.90;999.90;;;10.50;99.90;;;;;;5050120;28;20025;-70
2023/10/27 03:57:08;;;;;;;1999.90;999.90;;;10.50;99.90;;;;;;5053171;28;20316;-70
2023/10/27 03:59:34;;;;;;;1999.90;999.90;;;10.40;99.90;;;;;;5043173;28;20358;-79
2023/10/27 04:02:00;;;;;;;1999.90;999.90;;;10.50;99.90;;;;;;5051244;28;20032;-70
2023/10/27 04:04:26;;;;;;;1999.90;999.90;;;10.50;99.90;;;;;;5054468;28;20033;-70
2023/10/27 04:06:53;;;;;;;1999.90;999.90;;;10.50;99.90;;;;;;5052477;28;20349;-70
2023/10/27 04:09:21;;;;;;;1999.90;999.90;;;10.50;99.90;;;;;;5053013;28;20359;-70
2023/10/27 04:11:47;;;;;;;1999.90;999.90;;;10.50;99.90;;;;;;5048016;28;20068;-70
2023/10/27 04:14:12;;;;;;;1999.90;999.90;;;10.50;99.90;;;;;;5051546;28;20053;-70
2023/10/27 04:16:38;;;;;;;1999.90;999.90;;;10.50;99.90;;;;;;5053488;28;20442;-71
2023/10/27 04:19:04;;;;;;;1999.90;999.90;;;10.50;99.90;;;;;;5051995;28;20033;-71
2023/10/27 04:21:30;;;;;;;1999.90;999.90;;;10.50;99.90;;;;;;5047044;28;20030;-70
2023/10/27 04:23:56;;;;;;;1999.90;999.90;;;10.50;99.90;;;;;;5050485;28;20044;-70
2023/10/27 04:26:21;;;;;;;1999.90;999.90;;;10.50;99.90;;;;;;5053950;28;20070;-70
2023/10/27 04:28:47;;;;;;;1999.90;999.90;;;10.60;99.90;;;;;;5051736;28;20032;-70
2023/10/27 04:31:13;;;;;;;1999.90;999.90;;;10.60;99.90;;;;;;5052123;28;20408;-70
2023/10/27 04:33:39;;;;;;;1999.90;999.90;;;10.50;99.90;;;;;;5053776;28;20051;-71
2023/10/27 04:36:05;;;;;;;1999.90;999.90;;;10.60;99.90;;;;;;5053419;28;20083;-70
2023/10/27 04:38:31;;;;;;;1999.90;999.90;;;10.60;99.90;;;;;;5053811;28;20033;-70
2023/10/27 04:40:56;;;;;;;1999.90;999.90;;;10.60;99.90;;;;;;5053335;28;20430;-70
2023/10/27 04:43:22;;;;;;;1999.90;999.90;;;10.60;99.90;;;;;;5053477;28;20063;-71
2023/10/27 04:45:48;;;;;;;1999.90;999.90;;;10.60;99.90;;;;;;5057538;28;20028;-71
2023/10/27 04:48:14;;;;;;;1999.90;999.90;;;10.60;99.90;;;;;;5057524;28;20486;-70
2023/10/27 04:50:39;;;;;;;1999.90;999.90;;;10.60;99.90;;;;;;5055980;28;20045;-70
2023/10/27 04:53:06;;;;;;;1999.90;999.90;;;10.60;99.90;;;;;;5057234;28;20083;-70
2023/10/27 04:55:32;;;;;;;1999.90;999.90;;;10.60;99.90;;;;;;5052368;28;20021;-70
2023/10/27 04:57:57;;;;;;;1999.90;999.90;;;10.60;99.90;;;;;;5044321;28;20036;-70
2023/10/27 05:00:23;;;;;;;1999.90;999.90;;;10.60;99.90;;;;;;5057852;28;20415;-79
2023/10/27 05:02:52;;;;;;;1999.90;999.90;;;10.60;99.90;;;;;;5057764;28;20025;-71
2023/10/27 05:05:20;;;;;;;1999.90;999.90;;;10.60;99.90;;;;;;5057034;28;20071;-70
2023/10/27 05:07:45;;;;;;;1999.90;999.90;;;10.60;99.90;;;;;;5056401;28;20115;-70
2023/10/27 05:10:11;;;;;;;1999.90;999.90;;;10.60;99.90;;;;;;5056933;28;20108;-70
2023/10/27 05:12:37;;;;;;;1999.90;999.90;;;10.60;99.90;;;;;;5056440;28;20025;-71
2023/10/27 05:15:03;;;;;;;1999.90;999.90;;;10.60;99.90;;;;;;5049918;28;20021;-70
2023/10/27 05:17:32;;;;;;;1999.90;999.90;;;10.60;99.90;;;;;;5048293;28;20274;-71
2023/10/27 05:19:58;;;;;;;1999.90;999.90;;;10.70;99.90;;;;;;5053030;28;20390;-70
2023/10/27 05:22:23;;;;;;;1999.90;999.90;;;10.60;99.90;;;;;;5055755;28;20029;-71
2023/10/27 05:24:49;;;;;;;1999.90;999.90;;;10.70;99.90;;;;;;5053434;28;20036;-70
2023/10/27 05:27:15;;;;;;;1999.90;999.90;;;10.70;99.90;;;;;;5053751;28;20122;-71
2023/10/27 05:29:40;;;;;;;1999.90;999.90;;;10.60;99.90;;;;;;5055378;28;20045;-71
2023/10/27 05:32:06;;;;;;;1999.90;999.90;;;10.70;99.90;;;;;;5055952;28;20036;-70
2023/10/27 05:34:32;;;;;;;1999.90;999.90;;;10.70;99.90;;;;;;5054866;28;20075;-78
2023/10/27 05:36:57;;;;;;;1999.90;999.90;;;10.60;99.90;;;;;;5057003;28;20107;-71
2023/10/27 05:39:26;;;;;;;1999.90;999.90;;;10.60;99.90;;;;;;5054563;28;20307;-71
2023/10/27 05:41:52;;;;;;;1999.90;999.90;;;10.60;99.90;;;;;;5049800;28;20020;-70
2023/10/27 05:44:18;;;;;;;1999.90;999.90;;;10.70;99.90;;;;;;5046290;28;20120;-71
2023/10/27 05:46:44;;;;;;;1999.90;999.90;;;10.70;99.90;;;;;;5050953;28;20027;-70
2023/10/27 05:49:09;;;;;;;1999.90;999.90;;;10.60;99.90;;;;;;5045437;28;20059;-70
2023/10/27 05:51:35;;;;;;;1999.90;999.90;;;10.70;99.90;;;;;;5047309;28;20317;-70
2023/10/27 05:54:02;;;;;;;1999.90;999.90;;;10.70;99.90;;;;;;5054708;28;20431;-71
2023/10/27 05:56:28;;;;;;;1999.90;999.90;;;10.70;99.90;;;;;;5051780;28;20040;-70
2023/10/27 05:58:54;;;;;;;1999.90;999.90;;;10.70;99.90;;;;;;5044025;28;20021;-70
2023/10/27 06:01:20;;;;;;;1999.90;999.90;;;10.70;99.90;;;;;;5047838;28;20434;-71
2023/10/27 06:03:47;;;;;;;1999.90;999.90;;;10.70;99.90;;;;;;5050555;28;20037;-74
2023/10/27 06:06:13;;;;;;;1999.90;999.90;;;10.80;99.90;;;;;;5047707;28;20029;-71
2023/10/27 06:08:44;;;;;;;1999.90;999.90;;;10.70;99.90;;;;;;5042181;28;20155;-70
2023/10/27 06:11:10;;;;;;;1999.90;999.90;;;10.70;99.90;;;;;;5045599;28;20036;-71
2023/10/27 06:13:36;;;;;;;1999.90;999.90;;;10.70;99.90;;;;;;5050212;28;20437;-70
2023/10/27 06:16:02;;;;;;;1999.90;999.90;;;10.70;99.90;;;;;;5048238;28;20428;-71
2023/10/27 06:18:28;;;;;;;1999.90;999.90;;;10.70;99.90;;;;;;5053183;28;20029;-71
2023/10/27 06:20:54;;;;;;;1999.90;999.90;;;10.70;99.90;;;;;;5057136;28;20029;-71
2023/10/27 06:23:19;;;;;;;1999.90;999.90;;;10.70;99.90;;;;;;5053779;28;20059;-70
2023/10/27 06:25:45;;;;;;;1999.90;999.90;;;10.70;99.90;;;;;;5050392;28;20090;-79
2023/10/27 06:28:11;;;;;;;1999.90;999.90;;;10.80;99.90;;;;;;5052511;28;20461;-71
2023/10/27 06:30:36;;;;;;;1999.90;999.90;;;10.70;99.90;;;;;;5059419;28;20025;-70
2023/10/27 06:33:03;;;;;;;1999.90;999.90;;;10.70;99.90;;;;;;5051310;28;20717;-70
2023/10/27 06:35:28;;;;;;;1999.90;999.90;;;10.70;99.90;;;;;;5043694;28;20066;-71
2023/10/27 06:37:54;;;;;;;1999.90;999.90;;;10.70;99.90;;;;;;5048912;28;20033;-70
2023/10/27 06:40:21;;;;;;;1999.90;999.90;;;10.70;99.90;;;;;;5047644;28;20032;-70
2023/10/27 06:42:47;;;;;;;;;;;10.70;99.90;;;;;;5041442;28;20033;-70
2023/10/27 06:45:13;;;;;;;1999.90;999.90;;;10.70;99.90;;;;;;5043223;28;19917;-71
2023/10/27 06:47:39;;;;;;;1999.90;999.90;;;10.60;99.90;;;;;;5041370;28;20328;-70
2023/10/27 06:50:05;;;;;;;1999.90;999.90;;;10.60;99.90;;;;;;5048913;28;20328;-78
2023/10/27 06:52:32;;;;;;;1999.90;999.90;;;10.70;99.90;;;;;;5046850;28;20043;-80
2023/10/27 06:54:58;;;;;;;1999.90;999.90;;;10.70;99.90;;;;;;5042925;28;20106;-78
2023/10/27 06:57:23;;;;;;;1999.90;999.90;;;10.70;99.90;;;;;;5050150;28;20061;-70
2023/10/27 06:59:49;;;;;;;1999.90;999.90;;;10.70;99.90;;;;;;5046458;28;20331;-70
2023/10/27 07:02:15;;;;;;;1999.90;999.90;;;10.70;99.90;;;;;;5043774;28;20032;-71
2023/10/27 07:04:41;;;;;;;1999.90;999.90;;;10.70;99.90;;;;;;5038493;28;20037;-70
2023/10/27 07:07:06;;;;;;;1999.90;999.90;;;10.70;99.90;;;;;;5040358;28;20025;-70
2023/10/27 07:09:33;;;;;;;1999.90;999.90;;;10.70;99.90;;;;;;5042011;28;20025;-78
2023/10/27 07:12:03;;;;;;;1999.90;999.90;;;10.70;99.90;;;;;;5041600;28;20379;-71
2023/10/27 07:14:29;;;;;;;1999.90;999.90;;;10.70;99.90;;;;;;5042373;28;20090;-71
2023/10/27 07:16:56;;;;;;;1999.90;999.90;;;10.70;99.90;;;;;;5042407;28;20029;-70
2023/10/27 07:19:22;;;;;;;1999.90;999.90;;;10.80;99.90;;;;;;5041061;28;20084;-70
2023/10/27 07:21:48;;;;;;;1999.90;999.90;;;10.80;99.90;;;;;;5037066;28;20029;-71
2023/10/27 07:24:14;;;;;;;1999.90;999.90;;;10.80;99.90;;;;;;5044752;28;20352;-71
2023/10/27 07:26:40;;;;;;;1999.90;999.90;;;10.90;99.90;;;;;;5053983;28;20035;-79
2023/10/27 07:29:06;;;;;;;1999.90;999.90;;;10.80;99.90;;;;;;5044303;28;20025;-70
2023/10/27 07:31:32;;;;;;;1999.90;999.90;;;10.80;99.90;;;;;;5043514;28;20282;-70
2023/10/27 07:33:58;;;;;;;1999.90;999.90;;;10.80;99.90;;;;;;5047159;28;20052;-70
2023/10/27 07:36:24;;;;;;;1999.90;999.90;;;10.80;99.90;;;;;;5040382;28;20083;-70
2023/10/27 07:38:51;;;;;;;1999.90;999.90;;;10.80;99.90;;;;;;5040369;28;20770;-70
2023/10/27 07:41:16;;;;;;;1999.90;999.90;;;10.90;99.90;;;;;;5035338;28;20120;-70
2023/10/27 07:43:42;;;;;;;1999.90;999.90;;;10.80;99.90;;;;;;5046796;28;20109;-78
2023/10/27 07:46:08;;;;;;;1999.90;999.90;;;10.80;99.90;;;;;;5046175;28;20021;-70
2023/10/27 07:48:34;;;;;;;1999.90;999.90;;;10.90;99.90;;;;;;5048837;28;20402;-70
2023/10/27 07:51:00;;;;;;;1999.90;999.90;;;10.90;99.90;;;;;;5043331;28;20049;-70
2023/10/27 07:53:27;;;;;;;1999.90;999.90;;;11.00;99.90;;;;;;5047314;28;20361;-79
2023/10/27 07:55:54;;;;;;;1999.90;999.90;;;11.00;99.90;;;;;;5044639;28;20043;-70
2023/10/27 07:58:23;;;;;;;1999.90;999.90;;;11.00;99.90;;;;;;5048360;28;20021;-70
2023/10/27 08:00:51;;;;;;;1999.90;999.90;;;11.00;99.90;;;;;;5046967;28;20029;-79
2023/10/27 08:03:17;;;;;;;1999.90;999.90;;;11.00;99.90;;;;;;5048169;28;20501;-71
2023/10/27 08:05:43;;;;;;;1999.90;999.90;;;11.00;99.90;;;;;;5043936;28;20029;-71
2023/10/27 08:08:09;;;;;;;1999.90;999.90;;;11.10;99.90;;;;;;5045633;28;20091;-70
2023/10/27 08:10:38;;;;;;;1999.90;999.90;;;11.10;99.90;;;;;;5047280;28;20032;-80
2023/10/27 08:13:05;;;;;;;1999.90;999.90;;;11.10;99.90;;;;;;5043760;28;20034;-71
2023/10/27 08:15:32;;;;;;;1999.90;999.90;;;11.10;99.90;;;;;;5040668;28;20111;-71
2023/10/27 08:17:58;;;;;;;1999.90;999.90;;;11.10;99.90;;;;;;5047779;28;20307;-79
2023/10/27 08:20:24;;;;;;;1999.90;999.90;;;11.10;99.90;;;;;;5048317;28;20473;-70
2023/10/27 08:22:50;;;;;;;1999.90;999.90;;;11.10;99.90;;;;;;5047963;28;20037;-70
2023/10/27 08:25:16;;;;;;;1999.90;999.90;;;11.10;99.90;;;;;;5046150;28;20033;-70
2023/10/27 08:27:41;;;;;;;1999.90;999.90;;;11.20;99.90;;;;;;5050989;28;20061;-71
2023/10/27 08:30:08;;;;;;;1999.90;999.90;;;11.20;99.90;;;;;;5045984;28;20329;-70
2023/10/27 08:32:33;;;;;;;1999.90;999.90;;;11.30;99.90;;;;;;5052713;28;20041;-70
2023/10/27 08:34:59;;;;;;;1999.90;999.90;;;11.30;99.90;;;;;;5045146;28;20036;-70
2023/10/27 08:37:26;;;;;;;1999.90;999.90;;;11.40;99.90;;;;;;5055924;28;20029;-71
2023/10/27 08:39:52;;;;;;;1999.90;999.90;;;11.50;99.90;;;;;;5053832;28;20416;-70
2023/10/27 08:42:18;;;;;;;1999.90;999.90;;;11.50;99.90;;;;;;5041578;28;20040;-71
2023/10/27 08:44:45;;;;;;;1999.90;999.90;;;11.50;99.90;;;;;;5046402;28;20348;-80
2023/10/27 08:47:12;;;;;;;1999.90;999.90;;;11.50;99.90;;;;;;5046206;28;20035;-71
2023/10/27 08:49:38;;;;;;;1999.90;999.90;;;11.50;99.90;;;;;;5048906;28;20387;-70
2023/10/27 08:52:07;;;;;;;1999.90;999.90;;;11.50;99.90;;;;;;5050259;28;20033;-71
2023/10/27 08:54:36;;;;;;;1999.90;999.90;;;11.50;99.90;;;;;;5054734;28;20598;-79
2023/10/27 08:57:05;;;;;;;1999.90;999.90;;;11.50;99.90;;;;;;5047352;28;20065;-71
2023/10/27 08:59:30;;;;;;;1999.90;999.90;;;11.50;99.90;;;;;;5050008;28;20029;-71
2023/10/27 09:01:56;;;;;;;1999.90;999.90;;;11.50;99.90;;;;;;5047737;28;20048;-71
2023/10/27 09:04:23;;;;;;;1999.90;999.90;;;11.50;99.90;;;;;;5046214;28;20434;-71
2023/10/27 09:06:49;;;;;;;1999.90;999.90;;;11.60;99.90;;;;;;5044009;28;20171;-70
2023/10/27 09:09:15;;;;;;;1999.90;999.90;;;11.60;99.90;;;;;;5042693;28;20116;-78
2023/10/27 09:11:43;;;;;;;1999.90;999.90;;;11.60;99.90;;;;;;5050292;28;20060;-71
2023/10/27 09:14:19;;;;;;;1999.90;999.90;;;11.60;99.90;;;;;;5050894;28;20382;-71
2023/10/27 09:16:45;;;;;;;1999.90;999.90;;;11.60;99.90;;;;;;5044698;28;20033;-79
2023/10/27 09:19:26;;;;;;;1999.90;999.90;;;11.60;99.90;;;;;;5039476;28;20063;-71
2023/10/27 09:21:53;;;;;;;1999.90;999.90;;;11.60;99.90;;;;;;5048405;28;20289;-71
2023/10/27 09:24:29;;;;;;;1999.90;999.90;;;11.60;99.90;;;;;;5045968;28;20041;-71
2023/10/27 09:27:02;;;;;;;1999.90;999.90;;;11.60;99.90;;;;;;5048618;28;20040;-71
2023/10/27 09:29:31;;;;;;;1999.90;999.90;;;11.60;99.90;;;;;;5045175;28;20028;-71
2023/10/27 09:31:57;;;;;;;1999.90;999.90;;;11.60;99.90;;;;;;5054001;28;20323;-80
2023/10/27 09:34:25;;;;;;;1999.90;999.90;;;11.60;99.90;;;;;;5049347;28;20116;-71
2023/10/27 09:36:52;;;;;;;1999.90;999.90;;;11.60;99.90;;;;;;5048163;28;20036;-71
2023/10/27 09:39:20;;;;;;;;;;;11.60;99.90;;;;;;5045683;28;20017;-71
2023/10/27 09:41:55;;;;;;;1999.90;999.90;;;11.60;99.90;;;;;;5084926;28;20032;-71
2023/10/27 09:44:25;;;;;;;1999.90;999.90;;;11.70;99.90;;;;;;5045183;28;20025;-71
2023/10/27 09:46:54;;;;;;;1999.90;999.90;;;11.60;99.90;;;;;;5045991;28;20040;-71
2023/10/27 09:49:29;;;;;;;1999.90;999.90;;;11.70;99.90;;;;;;5051590;28;20033;-78
2023/10/27 09:52:04;;;;;;;1999.90;999.90;;;11.70;99.90;;;;;;5049971;28;20044;-74
2023/10/27 09:54:33;;;;;;;1999.90;999.90;;;11.70;99.90;;;;;;5047132;28;20024;-71
2023/10/27 09:57:04;;;;;;;1999.90;999.90;;;11.70;99.90;;;;;;5046924;28;20324;-71
2023/10/27 09:59:31;;;;;;;1999.90;999.90;;;11.70;99.90;;;;;;5049553;28;20083;-71
2023/10/27 10:02:05;;;;;;;1999.90;999.90;;;11.80;99.90;;;;;;5049702;28;20033;-71
2023/10/27 10:04:52;;;;;;;1999.90;999.90;;;11.70;99.90;;;;;;5050070;28;20041;-71
2023/10/27 10:07:35;;;;;;;1999.90;999.90;;;11.80;99.90;;;;;;5049130;28;20074;-71
2023/10/27 10:10:29;;;;;;;1999.90;999.90;;;11.70;99.90;;;;;;5047737;28;20025;-71
2023/10/27 10:13:00;;;;;;;1999.90;999.90;;;11.70;99.90;;;;;;5047721;28;20083;-71
2023/10/27 10:15:31;;;;;;;1999.90;999.90;;;11.70;99.90;;;;;;5043539;28;20022;-71
2023/10/27 10:17:57;;;;;;;1999.90;999.90;;;11.70;99.90;;;;;;5050146;28;20021;-73
2023/10/27 10:20:41;;;;;;;1999.90;999.90;;;11.70;99.90;;;;;;5047247;28;20056;-71
2023/10/27 10:23:08;;;;;;;1999.90;999.90;;;11.70;99.90;;;;;;5039813;28;20025;-71
2023/10/27 10:25:34;;;;;;;1999.90;999.90;;;11.70;99.90;;;;;;5049188;28;20288;-71
2023/10/27 10:28:08;;;;;;;1999.90;999.90;;;11.80;99.90;;;;;;5048166;28;20032;-71
2023/10/27 10:30:42;;;;;;;1999.90;999.90;;;11.80;99.90;;;;;;5055060;28;20025;-71
2023/10/27 10:33:16;;;;;;;1999.90;999.90;;;11.70;99.90;;;;;;5051744;28;20119;-71
2023/10/27 10:35:43;;;;;;;1999.90;999.90;;;11.80;99.90;;;;;;5048296;28;20385;-79
2023/10/27 10:38:23;;;;;;;1999.90;999.90;;;11.80;99.90;;;;;;5051236;28;20021;-71
2023/10/27 10:40:52;;;;;;;1999.90;999.90;;;11.70;99.90;;;;;;5053121;28;20032;-71
2023/10/27 10:43:19;;;;;;;1999.90;999.90;;;11.80;99.90;;;;;;5043559;28;20032;-71
2023/10/27 10:45:45;;;;;;;;;;;11.80;99.90;;;;;;5050150;28;20017;-71
2023/10/27 10:48:12;;;;;;;1999.90;999.90;;;11.80;99.90;;;;;;5037485;28;19913;-79
2023/10/27 10:50:38;;;;;;;1999.90;999.90;;;11.80;99.90;;;;;;5047865;28;20060;-72
2023/10/27 10:53:19;;;;;;;1999.90;999.90;;;11.80;99.90;;;;;;5047846;28;20037;-71
2023/10/27 10:55:46;;;;;;;1999.90;999.90;;;11.80;99.90;;;;;;5050579;28;20666;-71
2023/10/27 10:58:29;;;;;;;1999.90;999.90;;;11.80;99.90;;;;;;5043262;28;20347;-71
2023/10/27 11:00:57;;;;;;;1999.90;999.90;;;11.90;99.90;;;;;;5049227;28;20033;-79
2023/10/27 11:03:25;;;;;;;1999.90;999.90;;;11.90;99.90;;;;;;5047320;28;20018;-70
2023/10/27 11:05:54;;;;;;;1999.90;999.90;;;11.90;99.90;;;;;;5039268;28;20049;-71
2023/10/27 11:08:31;;;;;;;1999.90;999.90;;;11.90;99.90;;;;;;5040833;28;20021;-71
2023/10/27 11:11:03;;;;;;;1999.90;999.90;;;11.90;99.90;;;;;;5049971;28;20340;-75
2023/10/27 11:13:31;;;;;;;1999.90;999.90;;;11.90;99.90;;;;;;5045714;28;20056;-71
2023/10/27 11:15:58;;;;;;;1999.90;999.90;;;11.90;99.90;;;;;;5041203;28;20099;-72
2023/10/27 11:18:28;;;;;;;1999.90;999.90;;;12.00;99.90;;;;;;5045906;28;20032;-78
2023/10/27 11:20:53;;;;;;;1999.90;999.90;;;12.00;99.90;;;;;;5046734;28;20021;-79
2023/10/27 11:23:19;;;;;;;1999.90;999.90;;;11.90;99.90;;;;;;5041240;28;20499;-71
2023/10/27 11:25:45;;;;;;;1999.90;999.90;;;12.00;99.90;;;;;;5048386;28;20027;-71
2023/10/27 11:28:28;;;;;;;1999.90;999.90;;;12.00;99.90;;;;;;5054999;28;20030;-71
2023/10/27 11:31:17;;;;;;;1999.90;999.90;;;12.10;99.90;;;;;;5053640;28;20371;-71
2023/10/27 11:33:58;;;;;;;1999.90;999.90;;;12.10;99.90;;;;;;5043350;28;20364;-78
2023/10/27 11:36:28;;;;;;;1999.90;999.90;;;12.20;99.90;;;;;;5050548;28;20029;-71
2023/10/27 11:38:54;;;;;;;1999.90;999.90;;;12.20;99.90;;;;;;5055859;28;20123;-70
2023/10/27 11:41:20;;;;;;;1999.90;999.90;;;12.20;99.90;;;;;;5047172;28;20665;-71
2023/10/27 11:43:46;;;;;;;1999.90;999.90;;;12.20;99.90;;;;;;5053743;28;20029;-71
2023/10/27 11:46:13;;;;;;;1999.90;999.90;;;12.30;99.90;;;;;;5050055;28;20017;-80
2023/10/27 11:48:40;;;;;;;1999.90;999.90;;;12.30;99.90;;;;;;5048304;28;20377;-71
2023/10/27 11:51:06;;;;;;;1999.90;999.90;;;12.30;99.90;;;;;;5051223;28;20068;-71
2023/10/27 11:53:34;;;;;;;1999.90;999.90;;;12.20;99.90;;;;;;5062025;28;20056;-70
2023/10/27 11:56:06;;;;;;;1999.90;999.90;;;12.30;99.90;;;;;;5045571;28;20033;-71
2023/10/27 11:58:31;;;;;;;1999.90;999.90;;;12.30;99.90;;;;;;5046146;28;20033;-71
2023/10/27 12:00:57;;;;;;;1999.90;999.90;;;12.20;99.90;;;;;;5044915;28;20070;-72